Time;durP1;ratioP1;P1;durP2;ratioP2;P2;SDS_P1;SDS_P2;PMS_P1;PMS_P2;Temp;Humidity;BMP_temperature;BMP_pressure;BME280_temperature;BME280_humidity;BME280_pressure;Samples;Min_cycle;Max_cycle;Signal;HPM_P1;HPM_P2
2020/12/30 00:00:52;;;;;;;10.13;7.23;;;8.90;99.90;;;9.27;53.01;99253.19;4923600;28;97788;-64
2020/12/30 00:03:17;;;;;;;10.23;7.33;;;8.90;99.90;;;9.28;53.11;99260.13;4925444;28;99387;-61
2020/12/30 00:05:44;;;;;;;8.50;6.37;;;8.90;99.90;;;9.31;53.28;99264.38;4927922;28;98167;-61
2020/12/30 00:08:10;;;;;;;8.37;7.43;;;8.90;99.90;;;9.34;53.41;99262.44;4948463;28;103160;-61
2020/12/30 00:10:36;;;;;;;10.27;6.83;;;8.90;99.90;;;9.33;53.46;99257.25;4903717;28;98485;-61
2020/12/30 00:13:03;;;;;;;9.10;7.20;;;8.90;99.90;;;9.37;53.12;99258.78;4910679;28;100575;-61
2020/12/30 00:15:29;;;;;;;9.53;6.63;;;8.90;99.90;;;9.35;52.99;99255.41;4904756;28;99116;-61
2020/12/30 00:17:55;;;;;;;7.83;6.90;;;8.90;99.90;;;9.35;52.83;99260.66;4926910;28;98085;-61
2020/12/30 00:20:21;;;;;;;9.00;6.90;;;8.90;99.90;;;9.27;53.79;99262.84;4925575;28;96991;-61
2020/12/30 00:22:47;;;;;;;10.73;7.40;;;8.90;99.90;;;9.24;53.71;99263.84;4921598;28;98520;-61
2020/12/30 00:25:15;;;;;;;9.17;7.40;;;8.80;99.90;;;9.23;53.92;99273.50;4935064;28;100007;-62
2020/12/30 00:27:42;;;;;;;9.13;7.23;;;8.80;99.90;;;9.29;54.04;99272.38;4922399;28;97278;-61
2020/12/30 00:30:11;;;;;;;8.30;7.40;;;8.90;99.90;;;9.31;54.60;99265.22;4918027;28;97214;-62
2020/12/30 00:32:38;;;;;;;8.83;7.60;;;8.90;99.90;;;9.35;53.75;99269.41;4901210;28;99997;-62
2020/12/30 00:35:05;;;;;;;10.07;7.63;;;8.90;99.90;;;9.29;55.15;99268.88;4933143;28;97348;-61
2020/12/30 00:37:31;;;;;;;9.57;7.67;;;8.90;99.90;;;9.31;55.19;99264.38;4904051;28;98433;-61
2020/12/30 00:39:57;;;;;;;9.23;7.07;;;8.90;99.90;;;9.30;55.23;99267.94;4929767;28;98823;-61
2020/12/30 00:42:23;;;;;;;10.03;7.90;;;8.90;99.90;;;9.30;56.31;99267.94;4930670;28;101101;-61
2020/12/30 00:44:48;;;;;;;9.03;7.67;;;8.90;99.90;;;9.24;56.79;99267.31;4912274;28;98080;-62
2020/12/30 00:47:15;;;;;;;9.33;7.90;;;8.80;99.90;;;9.25;56.52;99273.44;4923738;28;103640;-62
2020/12/30 00:49:41;;;;;;;10.90;7.17;;;8.80;99.90;;;9.21;56.65;99275.38;4920454;28;97497;-62
2020/12/30 00:52:08;;;;;;;9.07;7.57;;;8.80;99.90;;;9.22;56.91;99269.19;4908693;28;98831;-62
2020/12/30 00:54:35;;;;;;;11.50;8.00;;;8.80;99.90;;;9.23;56.21;99268.25;4926328;28;98578;-62
2020/12/30 00:57:00;;;;;;;10.03;7.60;;;8.70;99.90;;;9.20;57.30;99273.69;4925457;28;101120;-63
2020/12/30 00:59:26;;;;;;;10.73;7.97;;;8.70;99.90;;;9.28;56.67;99275.06;4919371;28;98580;-63
2020/12/30 01:01:53;;;;;;;9.63;8.63;;;8.80;99.90;;;9.30;56.91;99278.47;4931812;28;108113;-63
2020/12/30 01:04:20;;;;;;;11.07;7.73;;;8.80;99.90;;;9.28;57.62;99285.59;4903065;28;97738;-63
2020/12/30 01:06:51;;;;;;;11.10;8.33;;;8.80;99.90;;;9.35;57.48;99281.72;4950250;28;99738;-62
2020/12/30 01:09:18;;;;;;;9.53;7.53;;;8.90;99.90;;;9.34;56.86;99285.28;4906402;28;97505;-65
2020/12/30 01:11:44;;;;;;;9.90;7.63;;;8.90;99.90;;;9.36;57.33;99286.88;4926687;28;99837;-62
2020/12/30 01:14:10;;;;;;;10.13;8.60;;;8.90;99.90;;;9.40;57.58;99295.47;4907414;28;99008;-63
2020/12/30 01:16:36;;;;;;;11.80;8.47;;;8.90;99.90;;;9.40;57.33;99295.47;4940286;28;97691;-64
2020/12/30 01:19:04;;;;;;;10.50;8.10;;;8.90;99.90;;;9.40;56.80;99290.19;4905042;28;98571;-64
2020/12/30 01:21:30;;;;;;;10.27;7.90;;;8.90;99.90;;;9.37;56.84;99300.91;4941281;28;96854;-64
2020/12/30 01:23:56;;;;;;;8.60;7.70;;;8.90;99.90;;;9.30;57.53;99299.53;4935229;28;102027;-64
2020/12/30 01:26:22;;;;;;;9.27;7.73;;;8.80;99.90;;;9.30;57.61;99299.53;4953306;28;97027;-64
2020/12/30 01:28:48;;;;;;;10.70;7.47;;;8.80;99.90;;;9.25;57.49;99308.47;4906829;28;97477;-63
2020/12/30 01:31:14;;;;;;;10.40;7.87;;;8.80;99.90;;;9.25;57.66;99297.13;4929851;28;101769;-63
2020/12/30 01:33:39;;;;;;;8.70;7.80;;;8.80;99.90;;;9.21;57.23;99306.94;4919502;28;99672;-63
2020/12/30 01:36:05;;;;;;;11.27;8.03;;;8.70;99.90;;;9.19;57.03;99303.56;4932993;28;97411;-63
2020/12/30 01:38:34;;;;;;;8.70;7.80;;;8.70;99.90;;;9.18;58.08;99304.47;4927989;28;97438;-63
2020/12/30 01:41:00;;;;;;;8.77;7.77;;;8.70;99.90;;;9.22;58.15;99306.00;4925081;28;99713;-63
2020/12/30 01:43:26;;;;;;;10.07;7.90;;;8.70;99.90;;;9.21;57.86;99306.94;4909535;28;98637;-63
2020/12/30 01:45:52;;;;;;;11.40;8.23;;;8.70;99.90;;;9.24;58.43;99316.47;4910596;28;97184;-63
2020/12/30 01:48:22;;;;;;;10.30;7.77;;;8.80;99.90;;;9.30;57.68;99302.16;4926499;28;97341;-63
2020/12/30 01:50:49;;;;;;;9.17;7.83;;;8.80;99.90;;;9.21;57.65;99319.25;4918281;28;101681;-64
2020/12/30 01:53:16;;;;;;;9.20;8.20;;;8.80;99.90;;;9.22;58.20;99324.44;4944486;28;97426;-63
2020/12/30 01:55:43;;;;;;;10.27;7.90;;;8.70;99.90;;;9.28;57.57;99322.44;4919169;28;98559;-63
2020/12/30 01:58:10;;;;;;;8.90;8.00;;;8.80;99.90;;;9.34;57.52;99330.00;4916193;28;96915;-63
2020/12/30 02:00:40;;;;;;;8.03;7.23;;;8.90;99.90;;;9.36;57.99;99331.63;4915669;28;102336;-63
2020/12/30 02:03:08;;;;;;;9.43;8.20;;;8.90;99.90;;;9.34;58.29;99343.16;4925306;28;99898;-63
2020/12/30 02:05:36;;;;;;;8.67;7.77;;;8.90;99.90;;;9.37;58.88;99343.00;4916134;28;99689;-62
2020/12/30 02:08:04;;;;;;;11.13;7.87;;;8.90;99.90;;;9.35;58.26;99339.59;4940394;28;99167;-63
2020/12/30 02:10:31;;;;;;;9.87;7.60;;;8.90;99.90;;;9.43;57.84;99335.66;4916989;28;100520;-63
2020/12/30 02:12:58;;;;;;;9.10;7.50;;;8.90;99.90;;;9.44;57.65;99328.59;4929944;28;97920;-62
2020/12/30 02:15:30;;;;;;;11.27;7.90;;;9.00;99.90;;;9.45;57.13;99328.53;4913985;28;100757;-63
2020/12/30 02:17:57;;;;;;;8.63;7.53;;;8.90;99.90;;;9.64;57.36;99331.03;4907404;28;98737;-64
2020/12/30 02:20:24;;;;;;;9.13;7.17;;;9.00;99.90;;;9.61;56.55;99325.94;4921579;28;97780;-63
2020/12/30 02:23:01;;;;;;;11.17;7.70;;;9.10;99.90;;;9.78;56.95;99323.25;4923237;28;99813;-63
2020/12/30 02:25:26;;;;;;;8.47;7.27;;;9.20;99.90;;;9.68;56.74;99323.81;4951936;28;96727;-64
2020/12/30 02:27:52;;;;;;;11.53;7.70;;;9.10;99.90;;;9.64;57.14;99331.03;4902573;28;101751;-63
2020/12/30 02:30:19;;;;;;;8.97;7.23;;;9.10;99.90;;;9.62;56.40;99327.63;4928442;28;99327;-64
2020/12/30 02:32:46;;;;;;;8.07;7.27;;;9.10;99.90;;;9.54;57.27;99329.81;4902303;28;99667;-63
2020/12/30 02:35:14;;;;;;;8.53;7.37;;;9.10;99.90;;;9.52;57.04;99326.41;4913415;28;97374;-63
2020/12/30 02:37:40;;;;;;;9.50;7.83;;;9.00;99.90;;;9.46;57.48;99332.00;4918761;28;98159;-64
2020/12/30 02:40:06;;;;;;;8.00;7.17;;;8.90;99.90;;;9.41;57.77;99341.94;4912257;28;98298;-63
2020/12/30 02:42:33;;;;;;;9.33;7.80;;;8.90;99.90;;;9.43;57.60;99337.44;4899372;28;106144;-63
2020/12/30 02:45:05;;;;;;;10.67;7.90;;;8.90;99.90;;;9.46;58.08;99347.81;4926210;28;100659;-63
2020/12/30 02:47:31;;;;;;;10.57;7.93;;;8.90;99.90;;;9.42;57.86;99356.78;4918102;28;98338;-63
2020/12/30 02:49:57;;;;;;;11.07;8.30;;;8.90;99.90;;;9.40;57.72;99358.63;4946871;28;99833;-62
2020/12/30 02:52:23;;;;;;;8.90;8.00;;;8.90;99.90;;;9.38;57.84;99356.06;4923178;28;99973;-67
2020/12/30 02:54:49;;;;;;;10.60;8.00;;;9.00;99.90;;;9.39;57.38;99362.19;4942355;28;96907;-63
2020/12/30 02:57:15;;;;;;;10.27;8.30;;;8.90;99.90;;;9.36;57.75;99370.25;4921527;28;97738;-63
2020/12/30 02:59:41;;;;;;;10.73;7.93;;;8.90;99.90;;;9.39;57.37;99367.44;4938491;28;98879;-63
2020/12/30 03:02:06;;;;;;;13.43;8.47;;;8.90;99.90;;;9.38;57.26;99366.59;4939172;28;97695;-64
2020/12/30 03:04:32;;;;;;;9.93;8.33;;;9.00;99.90;;;9.41;57.69;99371.72;4970552;28;96927;-64
2020/12/30 03:06:58;;;;;;;10.27;8.33;;;9.00;99.90;;;9.39;58.29;99370.94;4980789;28;103984;-63
2020/12/30 03:09:24;;;;;;;10.73;8.47;;;8.90;99.90;;;9.41;58.19;99370.88;4942640;28;97773;-65
2020/12/30 03:11:49;;;;;;;9.83;8.03;;;8.90;99.90;;;9.45;57.37;99377.69;4949415;28;113019;-63
2020/12/30 03:14:16;;;;;;;11.50;7.80;;;9.00;99.90;;;9.42;58.27;99372.59;4943904;28;97349;-63
2020/12/30 03:16:42;;;;;;;11.23;8.37;;;9.00;99.90;;;9.39;57.89;99370.09;4934734;28;96784;-63
2020/12/30 03:19:08;;;;;;;12.63;8.53;;;9.00;99.90;;;9.37;57.62;99379.84;4944968;28;101076;-63
2020/12/30 03:21:33;;;;;;;9.63;7.67;;;8.90;99.90;;;9.35;58.09;99369.41;4949974;28;104527;-64
2020/12/30 03:23:59;;;;;;;9.23;7.97;;;8.90;99.90;;;9.34;58.09;99380.00;4926988;28;108275;-63
2020/12/30 03:26:25;;;;;;;10.10;7.67;;;8.90;99.90;;;9.32;58.22;99376.59;4954712;28;97659;-63
2020/12/30 03:28:51;;;;;;;9.90;7.67;;;8.90;99.90;;;9.35;58.28;99381.69;4952066;28;107158;-63
2020/12/30 03:31:17;;;;;;;8.67;7.77;;;8.90;99.90;;;9.35;58.36;99382.56;4939545;28;98949;-63
2020/12/30 03:33:42;;;;;;;12.60;8.40;;;8.90;99.90;;;9.32;58.12;99387.13;4943154;28;97966;-63
2020/12/30 03:36:08;;;;;;;10.83;8.17;;;8.90;99.90;;;9.32;58.26;99384.50;4954469;28;103816;-63
2020/12/30 03:38:34;;;;;;;12.73;8.43;;;8.90;99.90;;;9.38;58.38;99376.28;4927549;28;109004;-64
2020/12/30 03:41:00;;;;;;;10.90;8.83;;;8.90;99.90;;;9.31;58.19;99386.28;4948190;28;98296;-63
2020/12/30 03:43:26;;;;;;;9.83;7.87;;;8.90;99.90;;;9.32;58.57;99384.50;4934597;28;96897;-63
2020/12/30 03:45:51;;;;;;;9.43;8.20;;;8.90;99.90;;;9.28;58.38;99385.59;4940646;28;97278;-64
2020/12/30 03:48:17;;;;;;;11.83;8.47;;;8.90;99.90;;;9.27;58.46;99384.75;4956689;28;108997;-63
2020/12/30 03:50:43;;;;;;;8.93;7.27;;;8.80;99.90;;;9.25;58.62;99376.91;4938693;28;115657;-63
2020/12/30 03:53:09;;;;;;;10.40;7.60;;;8.80;99.90;;;9.24;58.48;99382.22;4978395;28;97611;-63
2020/12/30 03:55:35;;;;;;;9.00;7.97;;;8.80;99.90;;;9.17;58.62;99383.47;5090376;23;98762;-64
2020/12/30 03:58:00;;;;;;;11.07;8.27;;;8.80;99.90;;;9.09;59.09;99391.75;4946694;28;99501;-64
2020/12/30 04:00:26;;;;;;;10.53;8.00;;;8.70;99.90;;;9.10;59.55;99388.19;4939957;28;98405;-64
2020/12/30 04:02:52;;;;;;;9.97;7.97;;;8.70;99.90;;;9.09;59.38;99389.13;4948900;28;98118;-63
2020/12/30 04:05:18;;;;;;;11.43;9.10;;;8.70;99.90;;;9.11;58.79;99395.19;4943542;28;98586;-64
2020/12/30 04:07:44;;;;;;;15.17;8.80;;;8.70;99.90;;;9.15;58.90;99391.47;4948538;28;100425;-64
2020/12/30 04:10:09;;;;;;;10.77;8.83;;;8.70;99.90;;;9.16;58.64;99393.16;4929115;28;101568;-63
2020/12/30 04:12:35;;;;;;;10.47;8.40;;;8.80;99.90;;;9.11;58.46;99392.53;4946416;28;98527;-62
2020/12/30 04:15:01;;;;;;;8.87;7.97;;;8.70;99.90;;;9.06;58.87;99385.78;4968298;28;97009;-62
2020/12/30 04:17:27;;;;;;;9.53;8.00;;;8.70;99.90;;;9.02;58.77;99387.72;4943460;28;101310;-64
2020/12/30 04:19:52;;;;;;;8.23;7.43;;;8.60;99.90;;;9.01;59.05;99387.81;4965004;28;98263;-63
2020/12/30 04:22:18;;;;;;;8.80;7.53;;;8.60;99.90;;;8.98;59.05;99388.81;4953541;28;97043;-63
2020/12/30 04:24:44;;;;;;;9.47;8.47;;;8.50;99.90;;;8.95;59.09;99383.69;4947501;28;108247;-62
2020/12/30 04:27:10;;;;;;;11.90;8.43;;;8.50;99.90;;;8.92;58.41;99391.72;4938853;28;103666;-63
2020/12/30 04:29:35;;;;;;;12.23;8.33;;;8.50;99.90;;;8.92;58.38;99397.00;4965250;28;103061;-62
2020/12/30 04:32:01;;;;;;;14.27;8.43;;;8.50;99.90;;;8.89;58.66;99389.25;4939276;28;101972;-63
2020/12/30 04:34:27;;;;;;;9.03;7.43;;;8.40;99.90;;;8.88;57.38;99392.81;4968773;28;101899;-62
2020/12/30 04:36:53;;;;;;;9.43;7.73;;;8.40;99.90;;;8.84;57.45;99396.53;4931237;28;115241;-62
2020/12/30 04:39:18;;;;;;;9.47;8.17;;;8.30;99.90;;;8.80;57.07;99394.94;4951412;28;99198;-62
2020/12/30 04:41:45;;;;;;;9.73;7.90;;;8.30;99.90;;;8.78;57.39;99402.06;4954552;28;99783;-63
2020/12/30 04:44:16;;;;;;;9.10;7.47;;;8.20;99.90;;;8.71;57.35;99391.00;4951667;28;97988;-62
2020/12/30 04:46:44;;;;;;;9.67;7.60;;;8.10;99.90;;;8.65;56.56;99388.66;4934716;28;100815;-63
2020/12/30 04:49:11;;;;;;;10.60;8.30;;;8.10;99.90;;;8.57;57.36;99394.28;4965402;28;99809;-62
2020/12/30 04:51:38;;;;;;;9.47;8.00;;;8.10;99.90;;;8.55;57.02;99392.66;4929153;28;97037;-63
2020/12/30 04:54:05;;;;;;;10.20;8.17;;;8.10;99.90;;;8.52;57.29;99398.88;4963483;28;97571;-63
2020/12/30 04:57:02;;;;;;;11.83;8.23;;;8.00;99.90;;;8.44;56.89;99395.78;4940832;28;99378;-63
2020/12/30 04:59:33;;;;;;;11.27;7.47;;;7.90;99.90;;;8.44;57.61;99413.31;4934061;28;102821;-63
2020/12/30 05:02:09;;;;;;;11.43;8.20;;;7.90;99.90;;;8.41;56.80;99409.06;4927585;28;96933;-64
2020/12/30 05:04:38;;;;;;;9.50;8.50;;;7.90;99.90;;;8.33;57.46;99409.38;4966602;28;97298;-64
2020/12/30 05:07:13;;;;;;;9.93;8.27;;;7.80;99.90;;;8.35;56.55;99410.19;4932462;28;104957;-63
2020/12/30 05:09:42;;;;;;;8.73;7.83;;;7.80;99.90;;;8.28;57.42;99408.75;4942331;28;99059;-62
2020/12/30 05:12:16;;;;;;;9.60;8.00;;;7.80;99.90;;;8.25;57.58;99419.41;4950043;28;97122;-63
2020/12/30 05:14:42;;;;;;;8.17;7.37;;;7.70;99.90;;;8.25;57.20;99421.19;4928714;28;97005;-63
2020/12/30 05:17:09;;;;;;;8.57;7.50;;;7.70;99.90;;;8.21;57.78;99422.22;4964543;28;98581;-63
2020/12/30 05:19:35;;;;;;;10.67;8.20;;;7.70;99.90;;;8.21;58.65;99416.97;4945471;28;99008;-63
2020/12/30 05:22:02;;;;;;;9.30;8.20;;;7.70;99.90;;;8.21;58.47;99427.47;4946315;28;97584;-62
2020/12/30 05:24:28;;;;;;;9.83;8.07;;;7.70;99.90;;;8.27;58.16;99429.84;4938924;28;99949;-63
2020/12/30 05:26:56;;;;;;;11.13;8.37;;;7.80;99.90;;;8.24;58.83;99430.81;4935321;28;100403;-62
2020/12/30 05:29:24;;;;;;;9.17;8.00;;;7.80;99.90;;;8.28;58.68;99442.06;4954445;28;99143;-63
2020/12/30 05:31:56;;;;;;;8.83;7.93;;;7.80;99.90;;;8.30;58.65;99434.94;4927595;28;100059;-63
2020/12/30 05:34:23;;;;;;;9.07;8.17;;;7.80;99.90;;;8.33;58.50;99447.94;4946837;28;97564;-63
2020/12/30 05:36:51;;;;;;;10.33;8.10;;;7.90;99.90;;;8.33;58.75;99443.53;4947822;28;100146;-63
2020/12/30 05:39:33;;;;;;;11.17;7.90;;;7.90;99.90;;;8.37;58.42;99452.16;4939939;28;106023;-62
2020/12/30 05:42:16;;;;;;;12.67;8.50;;;8.00;99.90;;;8.48;59.87;99452.53;4958552;28;96996;-63
2020/12/30 05:44:47;;;;;;;9.40;8.17;;;8.00;99.90;;;8.47;58.67;99458.69;4941338;28;99770;-62
2020/12/30 05:47:21;;;;;;;11.67;8.50;;;8.10;99.90;;;8.56;58.58;99455.66;4936256;28;100618;-63
2020/12/30 05:49:50;;;;;;;10.63;7.90;;;8.20;99.90;;;8.61;58.58;99458.91;4938196;28;98958;-63
2020/12/30 05:52:21;;;;;;;10.13;8.63;;;8.20;99.90;;;8.64;58.65;99453.50;4952737;28;97202;-63
2020/12/30 05:54:59;;;;;;;9.37;8.13;;;8.30;99.90;;;8.69;58.19;99460.34;4946962;28;100791;-63
2020/12/30 05:57:33;;;;;;;9.90;8.30;;;8.30;99.90;;;8.74;58.06;99455.72;4948643;28;98605;-63
2020/12/30 06:00:11;;;;;;;9.73;8.20;;;8.40;99.90;;;8.80;57.46;99452.78;4951008;28;97936;-63
2020/12/30 06:02:45;;;;;;;8.60;7.73;;;8.40;99.90;;;8.80;57.00;99460.69;4962927;28;98935;-64
2020/12/30 06:05:20;;;;;;;8.97;8.07;;;8.50;99.90;;;8.84;56.45;99467.53;4949805;28;100712;-63
2020/12/30 06:07:51;;;;;;;10.27;8.83;;;8.50;99.90;;;8.86;56.40;99463.03;4945462;28;99524;-63
2020/12/30 06:10:21;;;;;;;9.20;8.23;;;8.50;99.90;;;8.84;56.53;99464.88;4925805;28;99750;-63
2020/12/30 06:13:01;;;;;;;9.47;7.93;;;8.50;99.90;;;8.84;56.97;99471.00;4943639;28;97021;-62
2020/12/30 06:15:32;;;;;;;9.53;8.23;;;8.50;99.90;;;8.86;56.12;99469.16;4937374;28;97001;-63
2020/12/30 06:18:10;;;;;;;10.00;7.83;;;8.50;99.90;;;8.93;55.60;99474.94;4948213;28;100631;-63
2020/12/30 06:20:38;;;;;;;9.63;8.47;;;8.60;99.90;;;8.91;55.58;99474.19;4941407;28;101002;-63
2020/12/30 06:23:14;;;;;;;10.63;8.17;;;8.50;99.90;;;8.94;55.41;99476.66;4946692;28;97036;-63
2020/12/30 06:25:45;;;;;;;11.97;8.70;;;8.50;99.90;;;8.88;55.90;99487.47;4940181;28;97567;-62
2020/12/30 06:28:18;;;;;;;9.43;8.27;;;8.50;99.90;;;8.84;55.77;99483.28;4946281;28;104670;-63
2020/12/30 06:30:50;;;;;;;10.30;8.67;;;8.40;99.90;;;8.80;56.35;99481.72;4943364;28;98898;-65
2020/12/30 06:33:21;;;;;;;11.20;9.17;;;8.30;99.90;;;8.81;56.05;99486.03;4951595;28;101739;-62
2020/12/30 06:35:54;;;;;;;10.00;8.27;;;8.30;99.90;;;8.80;55.21;99489.59;4948497;28;96994;-63
2020/12/30 06:38:27;;;;;;;11.63;9.80;;;8.30;99.90;;;8.77;55.46;99495.00;4944866;28;100476;-63
2020/12/30 06:41:02;;;;;;;11.47;9.60;;;8.30;99.90;;;8.76;55.60;99494.16;4943593;28;97439;-62
2020/12/30 06:43:43;;;;;;;12.07;9.60;;;8.20;99.90;;;8.77;55.31;99495.84;4960643;28;96854;-62
2020/12/30 06:46:22;;;;;;;12.50;10.20;;;8.30;99.90;;;8.95;57.92;99499.41;4926515;28;97487;-63
2020/12/30 06:48:56;;;;;;;11.50;9.90;;;8.30;99.90;;;8.91;55.60;99505.75;4937271;28;97400;-64
2020/12/30 06:51:24;;;;;;;12.00;10.13;;;8.40;99.90;;;8.87;55.38;99506.81;4933136;28;100176;-63
2020/12/30 06:53:52;;;;;;;12.57;10.80;;;8.40;99.90;;;9.13;57.65;99503.81;4926791;28;97605;-63
2020/12/30 06:56:43;;;;;;;15.20;11.07;;;8.50;99.90;;;9.12;54.20;99511.78;4950603;28;97769;-63
2020/12/30 06:59:29;;;;;;;12.93;10.10;;;8.60;99.90;;;9.16;54.48;99524.69;4939363;28;102703;-62
2020/12/30 07:01:59;;;;;;;12.73;10.27;;;8.60;99.90;;;9.24;58.49;99526.94;4954747;28;99328;-64
2020/12/30 07:04:28;;;;;;;13.47;10.97;;;8.50;99.90;;;9.14;54.72;99531.81;4959703;28;96911;-62
2020/12/30 07:06:54;;;;;;;13.30;11.17;;;8.60;99.90;;;9.18;54.67;99540.41;4950548;28;96920;-62
2020/12/30 07:09:34;;;;;;;15.30;11.80;;;8.60;99.90;;;9.18;55.05;99549.16;4943282;28;99550;-63
2020/12/30 07:12:02;;;;;;;15.87;12.43;;;8.70;99.90;;;9.14;55.01;99558.13;4946521;28;100384;-63
2020/12/30 07:14:30;;;;;;;13.90;11.93;;;8.70;99.90;;;9.07;55.44;99561.94;4932538;28;98427;-63
2020/12/30 07:16:57;;;;;;;15.63;11.87;;;8.60;99.90;;;9.05;56.11;99563.81;4947700;28;97641;-63
2020/12/30 07:19:31;;;;;;;13.90;11.87;;;8.60;99.90;;;9.03;55.12;99564.81;4962335;28;99566;-63
2020/12/30 07:22:13;;;;;;;13.30;11.47;;;8.60;99.90;;;9.14;56.80;99579.16;4930908;28;97984;-63
2020/12/30 07:24:53;;;;;;;13.80;12.00;;;8.60;99.90;;;9.08;56.13;99584.69;4938133;28;98394;-63
2020/12/30 07:27:22;;;;;;;14.17;11.07;;;8.60;99.90;;;9.03;56.22;99586.69;4931684;28;97574;-64
2020/12/30 07:29:49;;;;;;;13.23;11.03;;;8.60;99.90;;;9.06;56.71;99590.97;4938680;28;100696;-64
2020/12/30 07:32:16;;;;;;;18.57;14.17;;;8.60;99.90;;;8.95;56.99;99594.06;4949577;28;100098;-63
2020/12/30 07:34:47;;;;;;;16.33;13.70;;;8.50;99.90;;;9.04;55.97;99606.81;4949006;28;104955;-62
2020/12/30 07:37:15;;;;;;;17.10;13.60;;;8.60;99.90;;;9.02;56.24;99606.03;4949160;28;97125;-63
2020/12/30 07:39:44;;;;;;;15.87;12.83;;;8.60;99.90;;;9.09;55.89;99601.34;4945500;28;99834;-63
2020/12/30 07:42:23;;;;;;;17.43;13.27;;;8.70;99.90;;;9.19;58.05;99598.22;4944736;28;98530;-63
2020/12/30 07:44:57;;;;;;;16.87;13.93;;;8.70;99.90;;;9.11;56.37;99608.25;4925199;28;97650;-64
2020/12/30 07:47:27;;;;;;;16.37;13.40;;;8.70;99.90;;;9.09;55.94;99604.81;4966335;28;99114;-64
2020/12/30 07:50:04;;;;;;;16.90;13.60;;;8.70;99.90;;;9.08;55.23;99604.91;4947313;28;99785;-63
2020/12/30 07:52:31;;;;;;;17.17;13.33;;;8.70;99.90;;;9.10;55.74;99618.81;4954170;28;98436;-62
2020/12/30 07:54:57;;;;;;;16.63;13.03;;;8.70;99.90;;;9.08;55.26;99625.94;4934611;28;99463;-63
2020/12/30 07:57:23;;;;;;;16.40;13.03;;;8.70;99.90;;;9.10;55.23;99624.09;4937963;28;98385;-62
2020/12/30 07:59:51;;;;;;;14.57;12.83;;;8.70;99.90;;;9.05;55.54;99626.94;4929014;28;103720;-66
2020/12/30 08:02:18;;;;;;;16.80;13.47;;;8.70;99.90;;;9.01;55.36;99625.38;4965616;28;102649;-62
2020/12/30 08:04:47;;;;;;;17.63;13.60;;;8.60;99.90;;;9.12;55.85;99638.91;4944607;28;98649;-62
2020/12/30 08:07:15;;;;;;;17.70;13.63;;;8.70;99.90;;;9.07;55.53;99642.66;4933370;28;97596;-62
2020/12/30 08:09:44;;;;;;;18.50;13.83;;;8.70;99.90;;;9.06;55.60;99639.16;4952060;28;97677;-62
2020/12/30 08:12:12;;;;;;;25.87;12.73;;;8.60;99.90;;;9.01;55.12;99646.41;4958899;28;99159;-62
2020/12/30 08:14:43;;;;;;;16.83;12.63;;;8.60;99.90;;;9.01;55.83;99651.69;4950518;28;99872;-62
2020/12/30 08:17:13;;;;;;;16.93;13.63;;;8.70;99.90;;;9.01;55.60;99656.09;4953376;28;101681;-63
2020/12/30 08:19:40;;;;;;;15.60;12.23;;;8.70;99.90;;;9.06;56.64;99660.22;4937841;28;97190;-63
2020/12/30 08:22:09;;;;;;;20.90;17.10;;;8.70;99.90;;;8.76;56.27;99662.44;4932582;28;100097;-61
2020/12/30 08:24:54;;;;;;;21.43;14.17;;;8.10;99.90;;;8.63;57.19;99664.72;4956448;28;96747;-60
2020/12/30 08:27:25;;;;;;;19.93;16.63;;;8.00;99.90;;;7.84;59.45;99668.03;4940621;28;100131;-55
2020/12/30 08:29:52;;;;;;;21.20;15.97;;;7.00;99.90;;;7.34;61.12;99670.84;4933401;28;100011;-60
2020/12/30 08:32:20;;;;;;;21.10;15.90;;;6.70;99.90;;;6.95;62.26;99677.59;4944450;28;98184;-60
2020/12/30 08:35:18;;;;;;;21.83;16.40;;;6.40;99.90;;;6.66;63.29;99679.47;4949804;28;96522;-57
2020/12/30 08:38:13;;;;;;;20.80;15.77;;;6.30;99.90;;;6.42;64.29;99677.69;4941156;28;99152;-60
2020/12/30 08:40:41;;;;;;;24.23;16.50;;;6.10;99.90;;;6.32;64.51;99678.91;4957210;28;104910;-54
2020/12/30 08:43:33;;;;;;;20.57;15.20;;;6.10;99.90;;;6.25;64.14;99673.88;4941286;28;100729;-49
2020/12/30 08:46:09;;;;;;;16.23;12.80;;;6.10;99.90;;;6.61;63.49;99685.78;4956816;28;96840;-54
2020/12/30 08:48:47;;;;;;;15.87;12.83;;;6.60;99.90;;;7.06;61.93;99688.53;4948435;28;98288;-59
2020/12/30 08:51:33;;;;;;;17.10;12.43;;;7.10;99.90;;;7.45;60.58;99694.91;4944358;28;98646;-57
2020/12/30 08:53:59;;;;;;;17.37;13.17;;;7.40;99.90;;;7.75;59.47;99692.00;4933300;28;98455;-56
2020/12/30 08:56:26;;;;;;;17.37;13.03;;;7.70;99.90;;;7.98;58.99;99684.09;4952463;28;99026;-53
2020/12/30 08:58:57;;;;;;;15.70;12.20;;;7.90;99.90;;;8.35;58.32;99687.84;4937202;28;96888;-58
2020/12/30 09:01:25;;;;;;;15.83;13.30;;;8.20;99.90;;;8.47;56.74;99692.59;4953353;28;97373;-58
2020/12/30 09:03:52;;;;;;;17.67;13.93;;;8.30;99.90;;;8.60;56.54;99693.78;4943825;28;97834;-61
2020/12/30 09:06:28;;;;;;;15.10;12.13;;;8.40;99.90;;;8.80;56.26;99689.44;4969950;28;96939;-57
2020/12/30 09:08:56;;;;;;;17.23;12.70;;;8.60;99.90;;;8.84;55.69;99691.88;4930356;28;97524;-58
2020/12/30 09:11:22;;;;;;;18.50;13.03;;;8.70;99.90;;;9.01;55.47;99696.41;4950163;28;96989;-57
2020/12/30 09:13:48;;;;;;;16.63;12.47;;;8.80;99.90;;;8.98;55.01;99699.16;4954110;28;99749;-56
2020/12/30 09:16:14;;;;;;;15.20;12.33;;;8.80;99.90;;;9.06;55.02;99694.41;4943568;28;96783;-58
2020/12/30 09:18:39;;;;;;;15.87;12.20;;;8.80;99.90;;;9.09;54.63;99702.16;4923468;28;97114;-59
2020/12/30 09:21:25;;;;;;;17.63;12.13;;;8.80;99.90;;;9.19;54.06;99692.09;4927484;28;99772;-57
2020/12/30 09:23:51;;;;;;;17.40;12.57;;;8.90;99.90;;;9.24;54.81;99706.72;4945146;28;97076;-57
2020/12/30 09:26:28;;;;;;;14.93;12.13;;;8.90;99.90;;;9.34;54.14;99719.47;4930727;28;97037;-56
2020/12/30 09:28:53;;;;;;;16.07;12.17;;;9.00;99.90;;;9.23;53.83;99718.19;4920934;28;96959;-57
2020/12/30 09:31:19;;;;;;;14.83;12.47;;;8.90;99.90;;;9.08;54.19;99710.13;4964718;28;109014;-56
2020/12/30 09:33:45;;;;;;;13.20;11.37;;;8.80;99.90;;;8.96;55.65;99722.03;4927162;28;97350;-57
2020/12/30 09:36:12;;;;;;;13.93;10.73;;;8.70;99.90;;;9.39;54.30;99726.22;4943085;28;96930;-57
2020/12/30 09:38:38;;;;;;;14.33;10.73;;;9.10;99.90;;;9.33;55.53;99723.03;4925307;28;97002;-58
2020/12/30 09:41:14;;;;;;;15.93;12.57;;;9.00;99.90;;;9.40;55.82;99721.81;4944578;28;106961;-55
2020/12/30 09:43:46;;;;;;;15.40;12.37;;;9.10;99.90;;;9.30;55.48;99715.28;4929337;28;97525;-55
2020/12/30 09:46:21;;;;;;;15.13;12.10;;;9.00;99.90;;;9.36;56.49;99709.75;4934048;28;98218;-55
2020/12/30 09:48:47;;;;;;;15.27;12.47;;;9.00;99.90;;;9.36;56.80;99717.63;4920037;28;97593;-58
2020/12/30 09:51:17;;;;;;;13.97;11.20;;;8.90;99.90;;;9.34;57.43;99724.75;4931510;28;98328;-55
2020/12/30 09:53:44;;;;;;;17.70;12.73;;;9.00;99.90;;;9.30;56.70;99718.78;4941917;28;101136;-58
2020/12/30 09:56:14;;;;;;;15.03;12.47;;;8.90;99.90;;;9.38;57.36;99723.66;4923072;28;98245;-59
2020/12/30 09:58:40;;;;;;;13.30;11.40;;;9.00;99.90;;;9.29;56.30;99722.34;4927942;28;97442;-58
2020/12/30 10:01:05;;;;;;;16.97;12.23;;;8.90;99.90;;;9.28;56.32;99728.53;4931035;28;98045;-58
2020/12/30 10:03:31;;;;;;;13.87;11.57;;;8.90;99.90;;;9.27;57.28;99723.34;4929032;28;103199;-56
2020/12/30 10:05:57;;;;;;;12.47;11.03;;;8.90;99.90;;;9.36;56.97;99731.66;4916542;28;98908;-56
2020/12/30 10:08:23;;;;;;;15.40;11.77;;;9.00;99.90;;;9.31;56.51;99738.06;4943841;28;110383;-54
2020/12/30 10:10:49;;;;;;;16.70;12.43;;;9.00;99.90;;;9.37;57.52;99737.75;4934974;28;99400;-55
2020/12/30 10:13:14;;;;;;;14.33;10.93;;;9.00;99.90;;;9.37;56.84;99738.63;4940402;28;99541;-56
2020/12/30 10:15:40;;;;;;;14.77;11.57;;;9.10;99.90;;;9.41;56.96;99744.63;4921369;28;97116;-59
2020/12/30 10:18:06;;;;;;;17.03;11.07;;;9.10;99.90;;;9.53;57.36;99739.63;4921880;28;96926;-57
2020/12/30 10:20:32;;;;;;;14.10;11.17;;;9.10;99.90;;;9.58;55.24;99736.81;4918434;28;98889;-57
2020/12/30 10:22:57;;;;;;;17.00;13.10;;;9.20;99.90;;;9.54;54.76;99737.84;4921353;28;100417;-57
2020/12/30 10:25:23;;;;;;;13.63;11.20;;;9.20;99.90;;;9.57;56.03;99742.13;4922967;28;98921;-57
2020/12/30 10:27:50;;;;;;;15.23;11.67;;;9.20;99.90;;;9.60;55.72;99734.09;4929693;28;102612;-58
2020/12/30 10:30:16;;;;;;;14.73;11.90;;;9.30;99.90;;;9.56;55.88;99743.91;4933593;28;98797;-59
2020/12/30 10:32:41;;;;;;;15.27;11.73;;;9.30;99.90;;;9.59;55.66;99738.50;4916571;28;98429;-57